createdAt,value
2018-04-15T00:00:10.147Z,0
2018-04-15T00:01:11.518Z,0
2018-04-15T00:02:12.879Z,0
2018-04-15T00:03:14.236Z,0
2018-04-15T00:04:15.587Z,0
2018-04-15T00:05:16.960Z,0
2018-04-15T00:06:18.348Z,0
2018-04-15T00:07:19.683Z,0
2018-04-15T00:08:21.043Z,0
2018-04-15T00:09:22.406Z,0
2018-04-15T00:10:24.619Z,0
2018-04-15T00:11:25.982Z,0
2018-04-15T00:12:27.347Z,0
2018-04-15T00:13:28.722Z,0
2018-04-15T00:14:30.090Z,0
2018-04-15T00:15:31.459Z,0
2018-04-15T00:16:32.824Z,0
2018-04-15T00:17:34.179Z,0
2018-04-15T00:18:35.543Z,0
2018-04-15T00:19:36.904Z,0
2018-04-15T00:20:38.274Z,0
2018-04-15T00:21:39.630Z,0
2018-04-15T00:22:40.995Z,0
2018-04-15T00:23:42.364Z,0
2018-04-15T00:24:43.717Z,0
2018-04-15T00:25:45.084Z,0
2018-04-15T00:26:46.437Z,0
2018-04-15T00:27:47.797Z,0
2018-04-15T00:28:49.150Z,0
2018-04-15T00:29:50.510Z,0
2018-04-15T00:30:51.874Z,0
2018-04-15T00:31:53.239Z,0
2018-04-15T00:32:54.590Z,0
2018-04-15T00:33:55.946Z,0
2018-04-15T00:34:57.322Z,0
2018-04-15T00:35:58.683Z,0
2018-04-15T00:37:00.048Z,0
2018-04-15T00:38:01.398Z,0
2018-04-15T00:39:02.750Z,0
2018-04-15T00:40:04.108Z,0
2018-04-15T00:41:05.468Z,0
2018-04-15T00:42:06.817Z,0
2018-04-15T00:43:08.179Z,0
2018-04-15T00:44:09.554Z,0
2018-04-15T00:45:10.904Z,0
2018-04-15T00:46:12.259Z,0
2018-04-15T00:47:13.620Z,0
2018-04-15T00:48:14.977Z,0
2018-04-15T00:49:16.341Z,0
2018-04-15T00:50:17.697Z,0
2018-04-15T00:51:19.049Z,0
2018-04-15T00:52:20.411Z,0
2018-04-15T00:53:21.773Z,0
2018-04-15T00:54:23.124Z,0
2018-04-15T00:55:24.474Z,0
2018-04-15T00:56:25.839Z,0
2018-04-15T00:57:27.188Z,0
2018-04-15T00:58:28.553Z,0
2018-04-15T00:59:29.915Z,0
2018-04-15T01:00:31.281Z,0
2018-04-15T01:01:32.640Z,0
2018-04-15T01:02:34.001Z,0
2018-04-15T01:03:35.363Z,0
2018-04-15T01:04:36.725Z,0
2018-04-15T01:05:38.091Z,0
2018-04-15T01:06:39.448Z,0
2018-04-15T01:07:40.809Z,0
2018-04-15T01:08:42.169Z,0
2018-04-15T01:09:43.527Z,0
2018-04-15T01:10:44.886Z,0
2018-04-15T01:11:46.255Z,0
2018-04-15T01:12:47.602Z,0
2018-04-15T01:13:48.965Z,0
2018-04-15T01:14:50.327Z,0
2018-04-15T01:15:51.679Z,0
2018-04-15T01:16:53.040Z,0
2018-04-15T01:17:54.391Z,0
2018-04-15T01:18:55.745Z,0
2018-04-15T01:19:57.107Z,0
2018-04-15T01:20:58.462Z,0
2018-04-15T01:21:59.819Z,0
2018-04-15T01:23:01.184Z,0
2018-04-15T01:24:02.541Z,0
2018-04-15T01:25:03.898Z,0
2018-04-15T01:26:05.251Z,0
2018-04-15T01:27:06.617Z,0
2018-04-15T01:28:07.967Z,0
2018-04-15T01:29:09.323Z,0
2018-04-15T01:30:10.684Z,0
2018-04-15T01:31:12.036Z,0
2018-04-15T01:32:13.402Z,0
2018-04-15T01:33:14.776Z,0
2018-04-15T01:34:16.137Z,0
2018-04-15T01:35:17.486Z,0
2018-04-15T01:36:18.835Z,0
2018-04-15T01:37:20.195Z,0
2018-04-15T01:38:21.554Z,0
2018-04-15T01:39:22.932Z,0
2018-04-15T01:40:24.288Z,0
2018-04-15T01:41:25.652Z,0
2018-04-15T01:42:27.006Z,0
2018-04-15T01:43:28.358Z,0
2018-04-15T01:44:29.717Z,0
2018-04-15T01:45:31.079Z,0
2018-04-15T01:46:32.439Z,0
2018-04-15T01:47:33.793Z,0
2018-04-15T01:48:35.142Z,0
2018-04-15T01:49:36.497Z,0
2018-04-15T01:50:37.852Z,0
2018-04-15T01:51:39.209Z,0
2018-04-15T01:52:40.570Z,0
2018-04-15T01:53:41.937Z,0
2018-04-15T01:54:43.288Z,0
2018-04-15T01:55:44.650Z,0
2018-04-15T01:56:46.000Z,0
2018-04-15T01:57:47.381Z,0
2018-04-15T01:58:48.747Z,0
2018-04-15T01:59:50.099Z,0
2018-04-15T02:00:51.478Z,0
2018-04-15T02:01:52.827Z,0
2018-04-15T02:02:57.010Z,0
2018-04-15T02:03:58.357Z,0
2018-04-15T02:04:59.709Z,0
2018-04-15T02:06:01.066Z,0
2018-04-15T02:07:02.432Z,0
2018-04-15T02:08:03.780Z,0
2018-04-15T02:09:05.138Z,0
2018-04-15T02:10:06.490Z,0
2018-04-15T02:11:07.839Z,0
2018-04-15T02:12:09.198Z,0
2018-04-15T02:13:10.555Z,0
2018-04-15T02:14:11.918Z,0
2018-04-15T02:15:13.273Z,0
2018-04-15T02:16:14.627Z,0
2018-04-15T02:17:15.985Z,0
2018-04-15T02:18:17.346Z,0
2018-04-15T02:19:18.697Z,0
2018-04-15T02:20:20.056Z,0
2018-04-15T02:21:21.410Z,0
2018-04-15T02:22:22.771Z,0
2018-04-15T02:23:24.146Z,0
2018-04-15T02:24:25.514Z,0
2018-04-15T02:25:26.868Z,0
2018-04-15T02:26:28.228Z,0
2018-04-15T02:27:30.277Z,0
2018-04-15T02:28:31.636Z,0
2018-04-15T02:29:32.986Z,0
2018-04-15T02:30:34.355Z,0
2018-04-15T02:31:35.929Z,0
2018-04-15T02:32:37.278Z,0
2018-04-15T02:33:38.657Z,0
2018-04-15T02:34:40.007Z,0
2018-04-15T02:35:41.362Z,0
2018-04-15T02:36:42.722Z,0
2018-04-15T02:37:44.075Z,0
2018-04-15T02:38:45.427Z,0
2018-04-15T02:39:46.789Z,0
2018-04-15T02:40:48.145Z,0
2018-04-15T02:41:49.504Z,0
2018-04-15T02:42:50.856Z,0
2018-04-15T02:43:52.219Z,0
2018-04-15T02:44:53.568Z,0
2018-04-15T02:45:54.923Z,0
2018-04-15T02:46:56.272Z,0
2018-04-15T02:47:57.624Z,0
2018-04-15T02:48:58.975Z,0
2018-04-15T02:50:00.332Z,0
2018-04-15T02:51:01.686Z,0
2018-04-15T02:52:03.042Z,0
2018-04-15T02:53:04.399Z,0
2018-04-15T02:54:05.747Z,0
2018-04-15T02:55:07.100Z,0
2018-04-15T02:56:08.452Z,0
2018-04-15T02:57:09.809Z,0
2018-04-15T02:58:11.166Z,0
2018-04-15T02:59:12.511Z,0
2018-04-15T03:00:13.870Z,0
2018-04-15T03:01:15.223Z,0
2018-04-15T03:02:16.579Z,0
2018-04-15T03:03:17.927Z,0
2018-04-15T03:04:19.309Z,0
2018-04-15T03:05:20.660Z,0
2018-04-15T03:06:22.012Z,0
2018-04-15T03:07:23.378Z,0
2018-04-15T03:08:24.736Z,0
2018-04-15T03:09:26.082Z,0
2018-04-15T03:10:27.436Z,0
2018-04-15T03:11:28.792Z,0
2018-04-15T03:12:30.148Z,0
2018-04-15T03:13:31.511Z,0
2018-04-15T03:14:32.862Z,0
2018-04-15T03:15:34.219Z,0
2018-04-15T03:16:35.573Z,0
2018-04-15T03:17:36.923Z,0
2018-04-15T03:18:38.276Z,0
2018-04-15T03:19:39.640Z,0
2018-04-15T03:20:40.991Z,0
2018-04-15T03:21:42.339Z,0
2018-04-15T03:22:43.704Z,0
2018-04-15T03:23:45.062Z,0
2018-04-15T03:24:46.410Z,0
2018-04-15T03:25:47.766Z,0
2018-04-15T03:26:49.121Z,0
2018-04-15T03:27:50.482Z,0
2018-04-15T03:28:51.848Z,0
2018-04-15T03:29:53.205Z,0
2018-04-15T03:30:54.560Z,0
2018-04-15T03:31:55.908Z,0
2018-04-15T03:32:57.270Z,0
2018-04-15T03:33:58.619Z,0
2018-04-15T03:34:59.980Z,0
2018-04-15T03:36:01.338Z,0
2018-04-15T03:37:02.692Z,0
2018-04-15T03:38:04.048Z,0
2018-04-15T03:39:05.401Z,0
2018-04-15T03:40:06.755Z,0
2018-04-15T03:41:08.119Z,0
2018-04-15T03:42:09.472Z,0
2018-04-15T03:43:10.834Z,0
2018-04-15T03:44:12.189Z,0
2018-04-15T03:45:13.546Z,0
2018-04-15T03:46:14.904Z,0
2018-04-15T03:47:16.257Z,0
2018-04-15T03:48:17.616Z,0
2018-04-15T03:49:18.975Z,0
2018-04-15T03:50:20.336Z,0
2018-04-15T03:51:21.692Z,0
2018-04-15T03:52:23.058Z,0
2018-04-15T03:53:25.352Z,0
2018-04-15T03:54:26.713Z,0
2018-04-15T03:55:28.068Z,0
2018-04-15T03:56:29.422Z,0
2018-04-15T03:57:30.777Z,0
2018-04-15T03:58:32.140Z,0
2018-04-15T03:59:33.485Z,0
2018-04-15T04:00:34.833Z,0
2018-04-15T04:01:36.329Z,0
2018-04-15T04:02:37.680Z,0
2018-04-15T04:03:39.037Z,0
2018-04-15T04:04:40.396Z,4
2018-04-15T04:05:41.753Z,4
2018-04-15T04:06:43.111Z,4
2018-04-15T04:07:44.470Z,0
2018-04-15T04:08:45.835Z,4
2018-04-15T04:09:47.187Z,4
2018-04-15T04:10:48.546Z,4
2018-04-15T04:11:50.026Z,8
2018-04-15T04:12:51.377Z,8
2018-04-15T04:13:52.852Z,12
2018-04-15T04:14:54.211Z,16
2018-04-15T04:15:55.565Z,16
2018-04-15T04:16:56.928Z,20
2018-04-15T04:17:58.287Z,24
2018-04-15T04:18:59.668Z,28
2018-04-15T04:20:01.038Z,36
2018-04-15T04:21:02.408Z,40
2018-04-15T04:22:03.751Z,48
2018-04-15T04:23:05.116Z,56
2018-04-15T04:24:06.483Z,60
2018-04-15T04:25:07.838Z,72
2018-04-15T04:26:09.199Z,84
2018-04-15T04:27:10.551Z,96
2018-04-15T04:28:11.910Z,108
2018-04-15T04:29:13.271Z,124
2018-04-15T04:30:14.643Z,136
2018-04-15T04:31:16.004Z,144
2018-04-15T04:32:17.362Z,152
2018-04-15T04:33:18.726Z,164
2018-04-15T04:34:20.084Z,180
2018-04-15T04:35:21.441Z,196
2018-04-15T04:36:22.801Z,216
2018-04-15T04:37:24.157Z,240
2018-04-15T04:38:25.517Z,264
2018-04-15T04:39:26.878Z,292
2018-04-15T04:40:28.243Z,316
2018-04-15T04:41:29.597Z,344
2018-04-15T04:42:30.956Z,368
2018-04-15T04:43:32.312Z,396
2018-04-15T04:44:33.680Z,424
2018-04-15T04:45:35.028Z,464
2018-04-15T04:46:36.392Z,508
2018-04-15T04:47:37.763Z,564
2018-04-15T04:48:39.117Z,624
2018-04-15T04:49:40.476Z,676
2018-04-15T04:50:41.837Z,700
2018-04-15T04:51:43.201Z,704
2018-04-15T04:52:44.552Z,700
2018-04-15T04:53:45.921Z,696
2018-04-15T04:54:47.271Z,688
2018-04-15T04:55:48.628Z,676
2018-04-15T04:56:49.991Z,672
2018-04-15T04:57:51.350Z,684
2018-04-15T04:58:52.713Z,700
2018-04-15T04:59:54.074Z,720
2018-04-15T05:00:55.440Z,728
2018-04-15T05:01:56.802Z,740
2018-04-15T05:02:58.162Z,772
2018-04-15T05:03:59.520Z,828
2018-04-15T05:05:00.876Z,904
2018-04-15T05:06:02.247Z,1008
2018-04-15T05:07:03.750Z,1116
2018-04-15T05:08:05.103Z,1228
2018-04-15T05:09:06.461Z,1360
2018-04-15T05:10:07.814Z,1508
2018-04-15T05:11:09.169Z,1616
2018-04-15T05:12:10.528Z,1680
2018-04-15T05:13:11.894Z,1716
2018-04-15T05:14:13.262Z,1748
2018-04-15T05:15:14.624Z,1772
2018-04-15T05:16:15.983Z,1792
2018-04-15T05:17:17.343Z,1852
2018-04-15T05:18:18.701Z,1940
2018-04-15T05:19:20.067Z,2064
2018-04-15T05:20:21.423Z,2152
2018-04-15T05:21:22.790Z,2248
2018-04-15T05:22:24.152Z,2428
2018-04-15T05:23:25.518Z,2640
2018-04-15T05:24:26.920Z,2824
2018-04-15T05:25:28.195Z,2996
2018-04-15T05:26:29.571Z,3224
2018-04-15T05:27:30.936Z,3492
2018-04-15T05:28:32.302Z,3752
2018-04-15T05:29:33.660Z,4028
2018-04-15T05:30:35.021Z,4324
2018-04-15T05:31:36.566Z,4552
2018-04-15T05:32:37.917Z,4632
2018-04-15T05:33:39.286Z,4588
2018-04-15T05:34:40.646Z,4568
2018-04-15T05:35:42.014Z,4616
2018-04-15T05:36:43.381Z,4720
2018-04-15T05:37:44.754Z,4872
2018-04-15T05:38:46.101Z,4952
2018-04-15T05:39:47.472Z,4896
2018-04-15T05:40:48.829Z,4776
2018-04-15T05:41:50.193Z,4704
2018-04-15T05:42:51.570Z,4700
2018-04-15T05:43:52.911Z,4780
2018-04-15T05:44:54.276Z,4896
2018-04-15T05:45:55.641Z,4976
2018-04-15T05:46:57.012Z,5032
2018-04-15T05:47:58.396Z,5100
2018-04-15T05:48:59.752Z,5200
2018-04-15T05:50:01.128Z,5332
2018-04-15T05:51:02.492Z,5428
2018-04-15T05:52:03.860Z,5524
2018-04-15T05:53:05.217Z,5640
2018-04-15T05:54:06.587Z,5720
2018-04-15T05:55:07.947Z,5784
2018-04-15T05:56:09.311Z,5924
2018-04-15T05:57:10.678Z,6196
2018-04-15T05:58:12.049Z,6496
2018-04-15T05:59:13.530Z,6736
2018-04-15T06:00:14.908Z,7056
2018-04-15T06:01:16.264Z,7416
2018-04-15T06:02:17.638Z,7624
2018-04-15T06:03:19.000Z,7572
2018-04-15T06:04:20.354Z,7420
2018-04-15T06:05:21.748Z,7400
2018-04-15T06:06:23.053Z,7480
2018-04-15T06:07:24.414Z,7492
2018-04-15T06:08:25.786Z,7364
2018-04-15T06:09:27.153Z,7176
2018-04-15T06:10:28.531Z,7076
2018-04-15T06:11:29.896Z,7148
2018-04-15T06:12:31.263Z,7336
2018-04-15T06:13:32.627Z,7536
2018-04-15T06:14:33.981Z,7816
2018-04-15T06:15:35.345Z,8208
2018-04-15T06:16:36.703Z,8656
2018-04-15T06:17:38.062Z,9156
2018-04-15T06:18:39.433Z,9756
2018-04-15T06:19:40.794Z,10424
2018-04-15T06:20:42.159Z,10920
2018-04-15T06:21:43.532Z,11144
2018-04-15T06:22:44.899Z,11224
2018-04-15T06:23:46.258Z,11180
2018-04-15T06:24:47.617Z,10960
2018-04-15T06:25:48.987Z,10548
2018-04-15T06:26:50.357Z,10016
2018-04-15T06:27:51.722Z,9652
2018-04-15T06:28:53.080Z,9548
2018-04-15T06:29:54.443Z,9632
2018-04-15T06:30:55.808Z,9840
2018-04-15T06:31:57.173Z,9940
2018-04-15T06:32:58.555Z,9792
2018-04-15T06:33:59.917Z,9720
2018-04-15T06:35:01.298Z,9984
2018-04-15T06:36:02.661Z,10452
2018-04-15T06:37:04.027Z,10928
2018-04-15T06:38:05.401Z,11256
2018-04-15T06:39:06.766Z,11488
2018-04-15T06:40:08.132Z,11716
2018-04-15T06:41:09.491Z,11892
2018-04-15T06:42:10.863Z,12084
2018-04-15T06:43:12.219Z,12464
2018-04-15T06:44:13.585Z,12900
2018-04-15T06:45:14.998Z,13232
2018-04-15T06:46:16.313Z,13512
2018-04-15T06:47:17.684Z,13948
2018-04-15T06:48:19.055Z,14660
2018-04-15T06:49:20.481Z,15504
2018-04-15T06:50:21.756Z,16416
2018-04-15T06:51:23.115Z,17292
2018-04-15T06:52:24.476Z,18080
2018-04-15T06:53:25.892Z,18560
2018-04-15T06:54:27.274Z,18944
2018-04-15T06:55:28.634Z,19104
2018-04-15T06:56:30.011Z,18912
2018-04-15T06:57:31.384Z,18496
2018-04-15T06:58:32.749Z,18624
2018-04-15T06:59:34.127Z,18848
2018-04-15T07:00:35.508Z,19520
2018-04-15T07:01:36.896Z,21600
2018-04-15T07:02:38.222Z,27136
2018-04-15T07:03:39.592Z,26432
2018-04-15T07:04:40.959Z,24736
2018-04-15T07:05:42.327Z,27584
2018-04-15T07:06:43.702Z,25568
2018-04-15T07:07:45.066Z,29056
2018-04-15T07:08:46.428Z,29088
2018-04-15T07:09:47.801Z,37888
2018-04-15T07:10:49.176Z,28384
2018-04-15T07:11:51.417Z,25664
2018-04-15T07:12:52.780Z,25440
2018-04-15T07:13:54.146Z,25728
2018-04-15T07:14:55.523Z,26112
2018-04-15T07:15:56.884Z,26784
2018-04-15T07:16:58.259Z,27744
2018-04-15T07:17:59.622Z,30240
2018-04-15T07:19:00.998Z,32384
2018-04-15T07:20:02.376Z,32128
2018-04-15T07:21:03.740Z,31232
2018-04-15T07:22:05.110Z,32064
2018-04-15T07:23:06.483Z,31808
2018-04-15T07:24:07.852Z,29472
2018-04-15T07:25:09.225Z,29952
2018-04-15T07:26:10.610Z,30912
2018-04-15T07:27:11.980Z,30560
2018-04-15T07:28:13.350Z,33120
2018-04-15T07:29:14.714Z,33248
2018-04-15T07:30:16.086Z,43808
2018-04-15T07:31:17.460Z,37824
2018-04-15T07:32:18.836Z,42080
2018-04-15T07:33:20.200Z,40480
2018-04-15T07:34:21.573Z,43136
2018-04-15T07:35:22.951Z,46592
2018-04-15T07:36:24.386Z,51520
2018-04-15T07:37:25.683Z,52320
2018-04-15T07:38:27.055Z,46400
2018-04-15T07:39:28.440Z,42528
2018-04-15T07:40:29.808Z,42048
2018-04-15T07:41:31.224Z,42656
2018-04-15T07:42:32.603Z,48544
2018-04-15T07:43:33.988Z,45056
2018-04-15T07:44:35.370Z,39168
2018-04-15T07:45:36.743Z,47872
2018-04-15T07:46:38.120Z,42688
2018-04-15T07:47:39.495Z,46496
2018-04-15T07:48:40.872Z,42400
2018-04-15T07:49:42.248Z,45728
2018-04-15T07:50:43.622Z,45376
2018-04-15T07:51:45.000Z,37312
2018-04-15T07:52:46.376Z,35008
2018-04-15T07:53:47.760Z,35072
2018-04-15T07:54:49.133Z,40480
2018-04-15T07:55:50.512Z,32704
2018-04-15T07:56:51.877Z,30976
2018-04-15T07:57:53.276Z,29888
2018-04-15T07:58:54.654Z,28928
2018-04-15T07:59:56.038Z,28064
2018-04-15T08:00:57.415Z,27808
2018-04-15T08:01:58.788Z,28672
2018-04-15T08:03:00.157Z,30144
2018-04-15T08:04:01.528Z,30720
2018-04-15T08:05:02.902Z,30592
2018-04-15T08:06:04.288Z,30464
2018-04-15T08:07:05.656Z,30368
2018-04-15T08:08:07.023Z,30400
2018-04-15T08:09:08.408Z,31200
2018-04-15T08:10:09.775Z,33024
2018-04-15T08:11:11.145Z,32800
2018-04-15T08:12:12.527Z,31360
2018-04-15T08:13:13.889Z,31008
2018-04-15T08:14:15.270Z,31808
2018-04-15T08:15:16.651Z,33760
2018-04-15T08:16:18.018Z,34368
2018-04-15T08:17:19.388Z,34976
2018-04-15T08:18:20.769Z,36512
2018-04-15T08:19:22.137Z,37472
2018-04-15T08:20:23.506Z,37696
2018-04-15T08:21:24.883Z,38752
2018-04-15T08:22:26.260Z,39264
2018-04-15T08:23:27.634Z,39520
2018-04-15T08:24:29.010Z,40352
2018-04-15T08:25:30.379Z,41344
2018-04-15T08:26:31.757Z,41824
2018-04-15T08:27:33.127Z,42944
2018-04-15T08:28:34.502Z,43104
2018-04-15T08:29:35.880Z,43840
2018-04-15T08:30:37.247Z,43936
2018-04-15T08:31:38.623Z,43968
2018-04-15T08:32:39.996Z,44448
2018-04-15T08:33:41.374Z,44672
2018-04-15T08:34:42.743Z,45472
2018-04-15T08:35:44.119Z,47616
2018-04-15T08:36:45.496Z,47936
2018-04-15T08:37:46.888Z,48448
2018-04-15T08:38:48.261Z,49568
2018-04-15T08:39:49.630Z,53120
2018-04-15T08:40:51.000Z,54304
2018-04-15T08:41:52.375Z,58656
2018-04-15T08:42:53.768Z,64256
2018-04-15T08:43:55.126Z,66368
2018-04-15T08:44:56.514Z,67968
2018-04-15T08:45:57.887Z,69824
2018-04-15T08:46:59.265Z,68448
2018-04-15T08:48:00.657Z,67264
2018-04-15T08:49:02.056Z,71680
2018-04-15T08:50:03.413Z,72416
2018-04-15T08:51:04.816Z,72576
2018-04-15T08:52:06.159Z,72896
2018-04-15T08:53:07.541Z,75520
2018-04-15T08:54:08.914Z,80832
2018-04-15T08:55:10.288Z,82720
2018-04-15T08:56:11.663Z,83392
2018-04-15T08:57:13.043Z,84096
2018-04-15T08:58:14.429Z,84576
2018-04-15T08:59:15.799Z,85440
2018-04-15T09:00:17.183Z,86080
2018-04-15T09:01:18.554Z,84800
2018-04-15T09:02:19.933Z,83328
2018-04-15T09:03:21.310Z,75968
2018-04-15T09:04:22.711Z,79584
2018-04-15T09:05:25.071Z,68480
2018-04-15T09:06:26.477Z,65824
2018-04-15T09:07:27.856Z,67552
2018-04-15T09:08:29.243Z,74784
2018-04-15T09:09:30.630Z,82720
2018-04-15T09:10:32.013Z,75936
2018-04-15T09:11:33.389Z,75328
2018-04-15T09:12:34.779Z,80160
2018-04-15T09:13:36.152Z,77856
2018-04-15T09:14:37.530Z,85984
2018-04-15T09:15:38.908Z,88960
2018-04-15T09:16:40.284Z,80416
2018-04-15T09:17:41.672Z,66912
2018-04-15T09:18:43.047Z,78080
2018-04-15T09:19:44.428Z,77856
2018-04-15T09:20:45.804Z,84096
2018-04-15T09:21:47.187Z,69344
2018-04-15T09:22:48.564Z,68960
2018-04-15T09:23:49.942Z,68832
2018-04-15T09:24:51.328Z,65312
2018-04-15T09:25:52.703Z,63200
2018-04-15T09:26:54.090Z,63808
2018-04-15T09:27:55.467Z,60160
2018-04-15T09:28:56.862Z,56288
2018-04-15T09:29:58.248Z,64032
2018-04-15T09:30:59.638Z,66112
2018-04-15T09:32:01.024Z,61152
2018-04-15T09:33:02.400Z,65888
2018-04-15T09:34:03.794Z,76768
2018-04-15T09:35:05.160Z,68000
2018-04-15T09:36:06.538Z,67072
2018-04-15T09:37:07.914Z,66656
2018-04-15T09:38:09.302Z,69728
2018-04-15T09:39:10.691Z,71872
2018-04-15T09:40:12.068Z,62624
2018-04-15T09:41:13.453Z,68288
2018-04-15T09:42:14.836Z,69152
2018-04-15T09:43:16.228Z,66816
2018-04-15T09:44:17.603Z,72896
2018-04-15T09:45:18.990Z,80096
2018-04-15T09:46:20.423Z,81696
2018-04-15T09:47:21.748Z,77504
2018-04-15T09:48:23.143Z,76096
2018-04-15T09:49:27.224Z,84384
2018-04-15T09:50:28.584Z,80352
2018-04-15T09:51:29.956Z,79328
2018-04-15T09:52:31.390Z,77120
2018-04-15T09:53:32.723Z,73920
2018-04-15T09:54:34.099Z,79776
2018-04-15T09:55:35.481Z,81856
2018-04-15T09:56:36.862Z,80032
2018-04-15T09:57:38.258Z,86720
2018-04-15T09:58:39.725Z,92864
2018-04-15T09:59:41.090Z,91392
2018-04-15T10:00:42.472Z,90560
2018-04-15T10:01:43.856Z,85024
2018-04-15T10:02:45.243Z,83744
2018-04-15T10:03:46.619Z,75360
2018-04-15T10:04:47.998Z,90464
2018-04-15T10:05:49.376Z,90528
2018-04-15T10:06:50.757Z,82496
2018-04-15T10:07:52.135Z,82784
2018-04-15T10:08:53.514Z,82208
2018-04-15T10:09:54.900Z,68352
2018-04-15T10:10:56.308Z,60160
2018-04-15T10:11:57.674Z,67616
2018-04-15T10:12:59.055Z,73984
2018-04-15T10:14:00.438Z,68448
2018-04-15T10:15:01.827Z,67200
2018-04-15T10:16:03.220Z,66496
2018-04-15T10:17:04.623Z,61920
2018-04-15T10:18:06.020Z,64832
2018-04-15T10:19:07.405Z,61312
2018-04-15T10:20:08.781Z,61664
2018-04-15T10:21:10.158Z,63424
2018-04-15T10:22:11.543Z,66176
2018-04-15T10:23:12.930Z,54240
2018-04-15T10:24:14.360Z,51296
2018-04-15T10:25:15.682Z,52736
2018-04-15T10:26:17.073Z,48192
2018-04-15T10:27:18.457Z,45856
2018-04-15T10:28:19.829Z,46496
2018-04-15T10:29:21.216Z,51456
2018-04-15T10:30:22.602Z,70336
2018-04-15T10:31:23.983Z,58592
2018-04-15T10:32:25.362Z,48448
2018-04-15T10:33:26.754Z,47360
2018-04-15T10:34:28.255Z,48352
2018-04-15T10:35:29.631Z,58208
2018-04-15T10:36:31.034Z,57856
2018-04-15T10:37:32.423Z,81248
2018-04-15T10:38:33.800Z,70688
2018-04-15T10:39:35.180Z,68064
2018-04-15T10:40:36.551Z,67232
2018-04-15T10:41:37.937Z,67008
2018-04-15T10:42:39.317Z,78816
2018-04-15T10:43:40.701Z,90976
2018-04-15T10:44:45.047Z,92416
2018-04-15T10:45:46.445Z,79648
2018-04-15T10:46:47.821Z,94208
2018-04-15T10:47:49.201Z,75424
2018-04-15T10:48:50.585Z,71488
2018-04-15T10:49:51.978Z,65152
2018-04-15T10:50:53.362Z,65792
2018-04-15T10:51:54.766Z,74944
2018-04-15T10:52:56.159Z,71584
2018-04-15T10:53:57.533Z,73376
2018-04-15T10:54:58.914Z,62048
2018-04-15T10:56:00.290Z,87264
2018-04-15T10:57:01.688Z,75264
2018-04-15T10:58:03.068Z,75008
2018-04-15T10:59:04.548Z,64800
2018-04-15T11:00:05.923Z,58208
2018-04-15T11:01:07.303Z,56992
2018-04-15T11:02:08.697Z,53856
2018-04-15T11:03:10.087Z,52480
2018-04-15T11:04:11.482Z,53792
2018-04-15T11:05:12.893Z,54496
2018-04-15T11:06:14.278Z,51072
2018-04-15T11:07:15.663Z,52128
2018-04-15T11:08:17.053Z,54720
2018-04-15T11:09:18.441Z,53376
2018-04-15T11:10:19.822Z,51328
2018-04-15T11:11:21.258Z,49472
2018-04-15T11:12:22.641Z,48448
2018-04-15T11:13:24.032Z,49568
2018-04-15T11:14:25.423Z,48320
2018-04-15T11:15:26.764Z,47712
2018-04-15T11:16:28.155Z,48064
2018-04-15T11:17:29.530Z,49888
2018-04-15T11:18:30.919Z,50528
2018-04-15T11:19:32.314Z,50848
2018-04-15T11:20:33.831Z,50752
2018-04-15T11:21:35.209Z,49760
2018-04-15T11:22:36.612Z,48416
2018-04-15T11:23:37.967Z,47520
2018-04-15T11:24:40.872Z,47072
2018-04-15T11:25:42.101Z,47232
2018-04-15T11:26:43.478Z,47744
2018-04-15T11:27:44.878Z,48480
2018-04-15T11:28:46.248Z,49184
2018-04-15T11:29:47.636Z,50240
2018-04-15T11:30:49.018Z,50272
2018-04-15T11:31:50.418Z,51104
2018-04-15T11:32:51.793Z,53888
2018-04-15T11:33:53.175Z,56672
2018-04-15T11:34:54.554Z,70336
2018-04-15T11:35:55.954Z,63520
2018-04-15T11:36:57.335Z,69632
2018-04-15T11:37:58.719Z,72096
2018-04-15T11:39:00.104Z,76832
2018-04-15T11:40:01.491Z,80096
2018-04-15T11:41:02.889Z,73184
2018-04-15T11:42:04.312Z,84288
2018-04-15T11:43:05.655Z,73600
2018-04-15T11:44:07.033Z,82720
2018-04-15T11:45:08.462Z,86848
2018-04-15T11:46:09.812Z,91584
2018-04-15T11:47:11.184Z,93120
2018-04-15T11:48:12.583Z,96800
2018-04-15T11:49:13.955Z,93696
2018-04-15T11:50:15.339Z,88864
2018-04-15T11:51:16.712Z,92672
2018-04-15T11:52:18.099Z,90752
2018-04-15T11:53:19.585Z,88672
2018-04-15T11:54:20.981Z,85152
2018-04-15T11:55:22.379Z,87008
2018-04-15T11:56:23.788Z,82848
2018-04-15T11:57:25.179Z,68096
2018-04-15T11:58:26.593Z,86784
2018-04-15T11:59:27.983Z,85120
2018-04-15T12:00:29.373Z,86176
2018-04-15T12:01:30.771Z,86016
2018-04-15T12:02:32.288Z,85696
2018-04-15T12:03:33.673Z,85664
2018-04-15T12:04:35.064Z,85312
2018-04-15T12:05:36.447Z,85408
2018-04-15T12:06:37.838Z,84960
2018-04-15T12:07:39.220Z,85280
2018-04-15T12:08:40.608Z,85952
2018-04-15T12:09:41.989Z,85248
2018-04-15T12:10:43.384Z,84160
2018-04-15T12:11:44.773Z,82944
2018-04-15T12:12:46.154Z,84096
2018-04-15T12:13:47.550Z,85504
2018-04-15T12:14:48.935Z,84704
2018-04-15T12:15:50.317Z,83904
2018-04-15T12:16:51.707Z,83808
2018-04-15T12:17:53.083Z,84608
2018-04-15T12:18:54.492Z,82848
2018-04-15T12:19:55.899Z,80352
2018-04-15T12:20:57.275Z,81600
2018-04-15T12:21:58.661Z,81408
2018-04-15T12:23:00.045Z,78176
2018-04-15T12:24:01.442Z,70336
2018-04-15T12:25:02.823Z,67264
2018-04-15T12:26:04.221Z,68800
2018-04-15T12:27:05.598Z,73280
2018-04-15T12:28:06.984Z,86016
2018-04-15T12:29:08.370Z,88064
2018-04-15T12:30:09.761Z,87328
2018-04-15T12:31:11.168Z,83392
2018-04-15T12:32:12.552Z,78048
2018-04-15T12:33:13.942Z,80416
2018-04-15T12:34:15.324Z,64512
2018-04-15T12:35:16.711Z,63264
2018-04-15T12:36:18.096Z,79072
2018-04-15T12:37:19.478Z,74528
2018-04-15T12:38:20.853Z,75200
2018-04-15T12:39:22.240Z,82336
2018-04-15T12:40:23.630Z,88256
2018-04-15T12:41:25.030Z,89344
2018-04-15T12:42:26.418Z,92256
2018-04-15T12:43:27.805Z,85504
2018-04-15T12:44:29.204Z,82432
2018-04-15T12:45:30.597Z,85472
2018-04-15T12:46:31.977Z,83360
2018-04-15T12:47:33.391Z,89152
2018-04-15T12:48:34.776Z,85760
2018-04-15T12:49:36.160Z,83840
2018-04-15T12:50:37.563Z,83904
2018-04-15T12:51:38.945Z,86304
2018-04-15T12:52:40.338Z,88096
2018-04-15T12:53:41.747Z,90720
2018-04-15T12:54:43.112Z,89664
2018-04-15T12:55:44.508Z,91968
2018-04-15T12:56:45.880Z,91552
2018-04-15T12:57:47.261Z,94464
2018-04-15T12:58:48.645Z,94432
2018-04-15T12:59:50.030Z,95296
2018-04-15T13:00:51.421Z,96096
2018-04-15T13:01:52.803Z,93472
2018-04-15T13:02:54.765Z,87744
2018-04-15T13:03:56.208Z,86368
2018-04-15T13:04:57.602Z,84288
2018-04-15T13:05:59.021Z,84320
2018-04-15T13:07:00.408Z,80672
2018-04-15T13:08:01.795Z,78368
2018-04-15T13:09:03.180Z,75328
2018-04-15T13:10:04.573Z,78208
2018-04-15T13:11:05.964Z,75712
2018-04-15T13:12:07.899Z,50688
2018-04-15T13:13:09.254Z,42016
2018-04-15T13:14:10.634Z,45856
2018-04-15T13:15:12.036Z,44352
2018-04-15T13:16:13.414Z,47680
2018-04-15T13:17:14.804Z,45216
2018-04-15T13:18:16.192Z,58912
2018-04-15T13:19:17.576Z,52608
2018-04-15T13:20:18.954Z,49568
2018-04-15T13:21:20.327Z,54784
2018-04-15T13:22:21.723Z,70688
2018-04-15T13:23:23.106Z,57952
2018-04-15T13:24:25.043Z,54336
2018-04-15T13:25:26.422Z,47200
2018-04-15T13:26:27.805Z,43904
2018-04-15T13:27:29.191Z,40192
2018-04-15T13:28:30.595Z,41568
2018-04-15T13:29:32.364Z,36832
2018-04-15T13:30:33.800Z,34656
2018-04-15T13:31:35.208Z,37664
2018-04-15T13:32:36.601Z,46528
2018-04-15T13:33:37.985Z,37056
2018-04-15T13:34:39.366Z,34560
2018-04-15T13:35:40.750Z,33696
2018-04-15T13:36:42.287Z,32768
2018-04-15T13:37:43.670Z,32096
2018-04-15T13:38:45.049Z,31296
2018-04-15T13:39:46.432Z,31008
2018-04-15T13:40:47.842Z,31040
2018-04-15T13:41:49.245Z,30912
2018-04-15T13:42:50.641Z,30848
2018-04-15T13:43:52.029Z,30720
2018-04-15T13:44:53.409Z,30656
2018-04-15T13:45:54.819Z,30464
2018-04-15T13:46:56.264Z,30208
2018-04-15T13:47:57.608Z,29824
2018-04-15T13:48:58.992Z,29504
2018-04-15T13:50:00.373Z,29152